sensor_id;sensor_type;location;lat;lon;timestamp;temperature;humidity
42663;DHT22;44330;51.360;6.686;2023-04-25T00:02:02;6.60;72.70
42663;DHT22;44330;51.360;6.686;2023-04-25T00:04:29;6.60;71.50
42663;DHT22;44330;51.360;6.686;2023-04-25T00:06:55;6.60;69.90
42663;DHT22;44330;51.360;6.686;2023-04-25T00:09:21;6.60;65.80
42663;DHT22;44330;51.360;6.686;2023-04-25T00:11:47;6.70;64.80
42663;DHT22;44330;51.360;6.686;2023-04-25T00:14:12;6.70;64.40
42663;DHT22;44330;51.360;6.686;2023-04-25T00:16:38;6.70;63.70
42663;DHT22;44330;51.360;6.686;2023-04-25T00:19:04;6.80;62.10
42663;DHT22;44330;51.360;6.686;2023-04-25T00:21:30;6.80;61.40
42663;DHT22;44330;51.360;6.686;2023-04-25T00:23:56;6.80;61.10
42663;DHT22;44330;51.360;6.686;2023-04-25T00:26:22;6.80;62.40
42663;DHT22;44330;51.360;6.686;2023-04-25T00:28:48;6.80;64.50
42663;DHT22;44330;51.360;6.686;2023-04-25T00:31:14;6.90;62.20
42663;DHT22;44330;51.360;6.686;2023-04-25T00:33:39;7.00;59.90
42663;DHT22;44330;51.360;6.686;2023-04-25T00:36:06;7.10;59.30
42663;DHT22;44330;51.360;6.686;2023-04-25T00:38:31;7.00;59.90
42663;DHT22;44330;51.360;6.686;2023-04-25T00:40:57;7.00;59.60
42663;DHT22;44330;51.360;6.686;2023-04-25T00:43:26;7.00;60.90
42663;DHT22;44330;51.360;6.686;2023-04-25T00:45:52;7.00;62.60
42663;DHT22;44330;51.360;6.686;2023-04-25T00:48:19;7.10;57.10
42663;DHT22;44330;51.360;6.686;2023-04-25T00:50:53;7.10;56.40
42663;DHT22;44330;51.360;6.686;2023-04-25T00:53:21;7.20;54.80
42663;DHT22;44330;51.360;6.686;2023-04-25T00:55:47;7.20;52.60
42663;DHT22;44330;51.360;6.686;2023-04-25T00:58:13;7.30;51.10
42663;DHT22;44330;51.360;6.686;2023-04-25T01:00:39;7.30;46.50
42663;DHT22;44330;51.360;6.686;2023-04-25T01:03:06;7.30;45.20
42663;DHT22;44330;51.360;6.686;2023-04-25T01:05:31;7.20;47.80
42663;DHT22;44330;51.360;6.686;2023-04-25T01:07:57;7.20;50.90
42663;DHT22;44330;51.360;6.686;2023-04-25T01:10:23;7.30;52.40
42663;DHT22;44330;51.360;6.686;2023-04-25T01:12:49;7.20;51.10
42663;DHT22;44330;51.360;6.686;2023-04-25T01:15:14;7.30;53.00
42663;DHT22;44330;51.360;6.686;2023-04-25T01:17:40;7.20;57.30
42663;DHT22;44330;51.360;6.686;2023-04-25T01:20:07;7.20;57.40
42663;DHT22;44330;51.360;6.686;2023-04-25T01:22:34;7.20;58.70
42663;DHT22;44330;51.360;6.686;2023-04-25T01:25:00;7.20;56.70
42663;DHT22;44330;51.360;6.686;2023-04-25T01:27:27;7.20;56.90
42663;DHT22;44330;51.360;6.686;2023-04-25T01:29:54;7.20;55.70
42663;DHT22;44330;51.360;6.686;2023-04-25T01:32:21;7.30;53.50
42663;DHT22;44330;51.360;6.686;2023-04-25T01:34:47;7.30;51.60
42663;DHT22;44330;51.360;6.686;2023-04-25T01:37:16;7.30;52.70
42663;DHT22;44330;51.360;6.686;2023-04-25T01:39:43;7.30;52.80
42663;DHT22;44330;51.360;6.686;2023-04-25T01:42:08;7.30;56.00
42663;DHT22;44330;51.360;6.686;2023-04-25T01:44:34;7.30;57.70
42663;DHT22;44330;51.360;6.686;2023-04-25T01:46:59;7.20;58.40
42663;DHT22;44330;51.360;6.686;2023-04-25T01:49:25;7.20;63.50
42663;DHT22;44330;51.360;6.686;2023-04-25T01:51:51;7.20;64.80
42663;DHT22;44330;51.360;6.686;2023-04-25T01:54:17;7.20;58.50
42663;DHT22;44330;51.360;6.686;2023-04-25T01:56:43;7.20;60.20
42663;DHT22;44330;51.360;6.686;2023-04-25T01:59:15;7.20;63.90
42663;DHT22;44330;51.360;6.686;2023-04-25T02:01:40;7.10;64.30
42663;DHT22;44330;51.360;6.686;2023-04-25T02:04:06;7.20;62.30
42663;DHT22;44330;51.360;6.686;2023-04-25T02:06:31;7.20;65.00
42663;DHT22;44330;51.360;6.686;2023-04-25T02:08:57;7.10;65.30
42663;DHT22;44330;51.360;6.686;2023-04-25T02:11:23;7.10;65.20
42663;DHT22;44330;51.360;6.686;2023-04-25T02:13:48;7.10;66.00
42663;DHT22;44330;51.360;6.686;2023-04-25T02:16:14;7.20;62.30
42663;DHT22;44330;51.360;6.686;2023-04-25T02:18:40;7.20;62.80
42663;DHT22;44330;51.360;6.686;2023-04-25T02:21:05;7.20;64.20
42663;DHT22;44330;51.360;6.686;2023-04-25T02:23:31;7.10;62.90
42663;DHT22;44330;51.360;6.686;2023-04-25T02:25:57;7.10;63.70
42663;DHT22;44330;51.360;6.686;2023-04-25T02:28:24;7.10;65.20
42663;DHT22;44330;51.360;6.686;2023-04-25T02:30:52;7.00;67.00
42663;DHT22;44330;51.360;6.686;2023-04-25T02:33:18;7.00;67.10
42663;DHT22;44330;51.360;6.686;2023-04-25T02:35:46;6.90;67.80
42663;DHT22;44330;51.360;6.686;2023-04-25T02:38:12;6.90;69.50
42663;DHT22;44330;51.360;6.686;2023-04-25T02:40:38;6.90;70.40
42663;DHT22;44330;51.360;6.686;2023-04-25T02:43:03;6.90;71.10
42663;DHT22;44330;51.360;6.686;2023-04-25T02:45:29;6.90;71.60
42663;DHT22;44330;51.360;6.686;2023-04-25T02:47:54;6.80;72.80
42663;DHT22;44330;51.360;6.686;2023-04-25T02:50:20;6.80;73.10
42663;DHT22;44330;51.360;6.686;2023-04-25T02:52:45;6.80;73.40
42663;DHT22;44330;51.360;6.686;2023-04-25T02:55:12;6.70;72.90
42663;DHT22;44330;51.360;6.686;2023-04-25T02:57:38;6.70;73.30
42663;DHT22;44330;51.360;6.686;2023-04-25T03:00:04;6.70;74.40
42663;DHT22;44330;51.360;6.686;2023-04-25T03:02:30;6.60;74.50
42663;DHT22;44330;51.360;6.686;2023-04-25T03:04:56;6.60;76.10
42663;DHT22;44330;51.360;6.686;2023-04-25T03:07:21;6.50;76.70
42663;DHT22;44330;51.360;6.686;2023-04-25T03:09:47;6.50;78.20
42663;DHT22;44330;51.360;6.686;2023-04-25T03:12:13;6.50;79.20
42663;DHT22;44330;51.360;6.686;2023-04-25T03:14:38;6.40;81.00
42663;DHT22;44330;51.360;6.686;2023-04-25T03:17:04;6.40;82.80
42663;DHT22;44330;51.360;6.686;2023-04-25T03:19:29;6.40;83.40
42663;DHT22;44330;51.360;6.686;2023-04-25T03:21:55;6.50;83.80
42663;DHT22;44330;51.360;6.686;2023-04-25T03:24:21;6.40;83.60
42663;DHT22;44330;51.360;6.686;2023-04-25T03:26:47;6.40;83.20
42663;DHT22;44330;51.360;6.686;2023-04-25T03:29:12;6.40;82.90
42663;DHT22;44330;51.360;6.686;2023-04-25T03:31:38;6.40;83.00
42663;DHT22;44330;51.360;6.686;2023-04-25T03:34:04;6.40;82.70
42663;DHT22;44330;51.360;6.686;2023-04-25T03:36:29;6.30;82.80
42663;DHT22;44330;51.360;6.686;2023-04-25T03:38:55;6.30;83.00
42663;DHT22;44330;51.360;6.686;2023-04-25T03:41:20;6.30;84.30
42663;DHT22;44330;51.360;6.686;2023-04-25T03:43:46;6.20;85.30
42663;DHT22;44330;51.360;6.686;2023-04-25T03:46:11;6.20;86.00
42663;DHT22;44330;51.360;6.686;2023-04-25T03:48:37;6.30;85.70
42663;DHT22;44330;51.360;6.686;2023-04-25T03:51:03;6.30;85.00
42663;DHT22;44330;51.360;6.686;2023-04-25T03:53:28;6.30;85.20
42663;DHT22;44330;51.360;6.686;2023-04-25T03:55:54;6.30;85.20
42663;DHT22;44330;51.360;6.686;2023-04-25T03:58:20;6.20;85.80
42663;DHT22;44330;51.360;6.686;2023-04-25T04:00:45;6.30;85.40
42663;DHT22;44330;51.360;6.686;2023-04-25T04:03:11;6.20;85.90
42663;DHT22;44330;51.360;6.686;2023-04-25T04:05:36;6.20;86.00
42663;DHT22;44330;51.360;6.686;2023-04-25T04:08:02;6.20;85.90
42663;DHT22;44330;51.360;6.686;2023-04-25T04:10:28;6.20;85.70
42663;DHT22;44330;51.360;6.686;2023-04-25T04:12:53;6.10;86.60
42663;DHT22;44330;51.360;6.686;2023-04-25T04:15:19;6.10;86.70
42663;DHT22;44330;51.360;6.686;2023-04-25T04:17:45;6.10;86.90
42663;DHT22;44330;51.360;6.686;2023-04-25T04:20:12;6.10;86.30
42663;DHT22;44330;51.360;6.686;2023-04-25T04:22:37;6.10;84.80
42663;DHT22;44330;51.360;6.686;2023-04-25T04:25:03;6.10;84.80
42663;DHT22;44330;51.360;6.686;2023-04-25T04:27:31;6.00;84.80
42663;DHT22;44330;51.360;6.686;2023-04-25T04:29:57;5.90;85.20
42663;DHT22;44330;51.360;6.686;2023-04-25T04:32:23;5.80;86.80
42663;DHT22;44330;51.360;6.686;2023-04-25T04:34:49;5.80;87.50
42663;DHT22;44330;51.360;6.686;2023-04-25T04:37:15;5.80;88.70
42663;DHT22;44330;51.360;6.686;2023-04-25T04:39:40;5.70;88.60
42663;DHT22;44330;51.360;6.686;2023-04-25T04:42:06;5.70;89.80
42663;DHT22;44330;51.360;6.686;2023-04-25T04:44:33;5.70;89.80
42663;DHT22;44330;51.360;6.686;2023-04-25T04:46:59;5.60;89.50
42663;DHT22;44330;51.360;6.686;2023-04-25T04:49:25;5.60;89.50
42663;DHT22;44330;51.360;6.686;2023-04-25T04:51:51;5.60;89.20
42663;DHT22;44330;51.360;6.686;2023-04-25T04:54:17;5.60;90.10
42663;DHT22;44330;51.360;6.686;2023-04-25T04:56:43;5.50;90.10
42663;DHT22;44330;51.360;6.686;2023-04-25T04:59:08;5.60;90.00
42663;DHT22;44330;51.360;6.686;2023-04-25T05:01:34;5.60;89.90
42663;DHT22;44330;51.360;6.686;2023-04-25T05:04:03;5.60;90.00
42663;DHT22;44330;51.360;6.686;2023-04-25T05:06:29;5.50;90.10
42663;DHT22;44330;51.360;6.686;2023-04-25T05:08:57;5.60;90.30
42663;DHT22;44330;51.360;6.686;2023-04-25T05:11:23;5.50;90.20
42663;DHT22;44330;51.360;6.686;2023-04-25T05:13:50;5.50;90.10
42663;DHT22;44330;51.360;6.686;2023-04-25T05:16:16;5.60;90.10
42663;DHT22;44330;51.360;6.686;2023-04-25T05:18:42;5.60;90.00
42663;DHT22;44330;51.360;6.686;2023-04-25T05:21:07;5.60;89.80
42663;DHT22;44330;51.360;6.686;2023-04-25T05:23:33;5.70;87.20
42663;DHT22;44330;51.360;6.686;2023-04-25T05:25:59;5.70;87.10
42663;DHT22;44330;51.360;6.686;2023-04-25T05:28:25;5.70;87.30
42663;DHT22;44330;51.360;6.686;2023-04-25T05:30:51;5.70;87.20
42663;DHT22;44330;51.360;6.686;2023-04-25T05:33:16;5.70;87.30
42663;DHT22;44330;51.360;6.686;2023-04-25T05:35:42;5.70;87.20
42663;DHT22;44330;51.360;6.686;2023-04-25T05:38:08;5.70;87.20
42663;DHT22;44330;51.360;6.686;2023-04-25T05:40:33;5.80;87.60
42663;DHT22;44330;51.360;6.686;2023-04-25T05:42:59;6.00;87.60
42663;DHT22;44330;51.360;6.686;2023-04-25T05:45:25;6.00;85.80
42663;DHT22;44330;51.360;6.686;2023-04-25T05:47:50;6.10;84.00
42663;DHT22;44330;51.360;6.686;2023-04-25T05:50:16;6.30;81.70
42663;DHT22;44330;51.360;6.686;2023-04-25T05:52:41;6.40;79.80
42663;DHT22;44330;51.360;6.686;2023-04-25T05:55:07;6.50;77.00
42663;DHT22;44330;51.360;6.686;2023-04-25T05:57:33;6.50;74.20
42663;DHT22;44330;51.360;6.686;2023-04-25T05:59:58;6.60;70.90
42663;DHT22;44330;51.360;6.686;2023-04-25T06:02:24;6.60;70.10
42663;DHT22;44330;51.360;6.686;2023-04-25T06:04:51;6.70;70.70
42663;DHT22;44330;51.360;6.686;2023-04-25T06:07:17;6.70;72.10
42663;DHT22;44330;51.360;6.686;2023-04-25T06:09:43;6.80;72.70
42663;DHT22;44330;51.360;6.686;2023-04-25T06:12:09;6.80;73.80
42663;DHT22;44330;51.360;6.686;2023-04-25T06:14:34;7.00;73.70
42663;DHT22;44330;51.360;6.686;2023-04-25T06:17:00;7.00;73.80
42663;DHT22;44330;51.360;6.686;2023-04-25T06:19:35;7.10;72.80
42663;DHT22;44330;51.360;6.686;2023-04-25T06:22:01;7.30;67.50
42663;DHT22;44330;51.360;6.686;2023-04-25T06:24:27;7.30;61.80
42663;DHT22;44330;51.360;6.686;2023-04-25T06:26:52;7.30;61.50
42663;DHT22;44330;51.360;6.686;2023-04-25T06:29:18;7.40;60.60
42663;DHT22;44330;51.360;6.686;2023-04-25T06:31:43;7.40;60.20
42663;DHT22;44330;51.360;6.686;2023-04-25T06:34:09;7.50;62.20
42663;DHT22;44330;51.360;6.686;2023-04-25T06:36:35;7.60;61.50
42663;DHT22;44330;51.360;6.686;2023-04-25T06:39:00;7.80;51.30
42663;DHT22;44330;51.360;6.686;2023-04-25T06:41:26;7.90;52.50
42663;DHT22;44330;51.360;6.686;2023-04-25T06:43:51;8.00;55.40
42663;DHT22;44330;51.360;6.686;2023-04-25T06:46:17;8.20;50.80
42663;DHT22;44330;51.360;6.686;2023-04-25T06:48:45;8.40;50.70
42663;DHT22;44330;51.360;6.686;2023-04-25T06:51:11;8.60;39.50
42663;DHT22;44330;51.360;6.686;2023-04-25T06:53:38;8.70;40.20
42663;DHT22;44330;51.360;6.686;2023-04-25T06:56:04;8.90;37.50
42663;DHT22;44330;51.360;6.686;2023-04-25T06:58:30;9.00;29.20
42663;DHT22;44330;51.360;6.686;2023-04-25T07:00:56;9.10;20.10
42663;DHT22;44330;51.360;6.686;2023-04-25T07:03:21;9.00;14.40
42663;DHT22;44330;51.360;6.686;2023-04-25T07:05:47;9.10;12.70
42663;DHT22;44330;51.360;6.686;2023-04-25T07:08:12;9.20;18.30
42663;DHT22;44330;51.360;6.686;2023-04-25T07:10:38;9.30;1.00
42663;DHT22;44330;51.360;6.686;2023-04-25T07:13:04;9.50;1.00
42663;DHT22;44330;51.360;6.686;2023-04-25T07:15:29;9.70;1.00
42663;DHT22;44330;51.360;6.686;2023-04-25T07:17:55;10.10;1.00
42663;DHT22;44330;51.360;6.686;2023-04-25T07:20:20;9.90;1.00
42663;DHT22;44330;51.360;6.686;2023-04-25T07:22:46;9.90;99.90
42663;DHT22;44330;51.360;6.686;2023-04-25T07:25:11;9.90;99.90
42663;DHT22;44330;51.360;6.686;2023-04-25T07:27:37;10.10;99.90
42663;DHT22;44330;51.360;6.686;2023-04-25T07:30:03;10.40;99.90
42663;DHT22;44330;51.360;6.686;2023-04-25T07:32:29;10.70;96.50
42663;DHT22;44330;51.360;6.686;2023-04-25T07:34:55;10.90;99.90
42663;DHT22;44330;51.360;6.686;2023-04-25T07:37:20;11.00;1.00
42663;DHT22;44330;51.360;6.686;2023-04-25T07:39:49;11.10;99.90
42663;DHT22;44330;51.360;6.686;2023-04-25T07:42:14;11.20;21.00
42663;DHT22;44330;51.360;6.686;2023-04-25T07:44:40;11.40;99.90
42663;DHT22;44330;51.360;6.686;2023-04-25T07:47:09;11.40;99.90
42663;DHT22;44330;51.360;6.686;2023-04-25T07:49:38;11.20;99.90
42663;DHT22;44330;51.360;6.686;2023-04-25T07:52:05;11.40;99.90
42663;DHT22;44330;51.360;6.686;2023-04-25T07:54:31;11.60;99.90
42663;DHT22;44330;51.360;6.686;2023-04-25T07:56:57;11.90;99.90
42663;DHT22;44330;51.360;6.686;2023-04-25T07:59:23;12.00;99.90
42663;DHT22;44330;51.360;6.686;2023-04-25T08:01:49;12.20;26.00
42663;DHT22;44330;51.360;6.686;2023-04-25T08:04:14;12.20;1.00
42663;DHT22;44330;51.360;6.686;2023-04-25T08:06:40;12.30;1.00
42663;DHT22;44330;51.360;6.686;2023-04-25T08:09:06;12.10;99.90
42663;DHT22;44330;51.360;6.686;2023-04-25T08:11:31;12.20;1.00
42663;DHT22;44330;51.360;6.686;2023-04-25T08:13:57;11.80;99.90
42663;DHT22;44330;51.360;6.686;2023-04-25T08:16:22;11.60;99.90
42663;DHT22;44330;51.360;6.686;2023-04-25T08:18:49;11.30;99.90
42663;DHT22;44330;51.360;6.686;2023-04-25T08:21:15;11.20;99.90
42663;DHT22;44330;51.360;6.686;2023-04-25T08:23:41;11.30;99.90
42663;DHT22;44330;51.360;6.686;2023-04-25T08:26:06;11.50;99.90
42663;DHT22;44330;51.360;6.686;2023-04-25T08:28:32;11.80;99.90
42663;DHT22;44330;51.360;6.686;2023-04-25T08:30:58;12.00;99.90
42663;DHT22;44330;51.360;6.686;2023-04-25T08:33:23;12.30;1.00
42663;DHT22;44330;51.360;6.686;2023-04-25T08:35:49;12.60;99.90
42663;DHT22;44330;51.360;6.686;2023-04-25T08:38:14;12.70;99.90
42663;DHT22;44330;51.360;6.686;2023-04-25T08:40:40;12.40;99.90
42663;DHT22;44330;51.360;6.686;2023-04-25T08:43:07;12.40;99.90
42663;DHT22;44330;51.360;6.686;2023-04-25T08:45:39;12.20;75.60
42663;DHT22;44330;51.360;6.686;2023-04-25T08:48:10;12.10;99.90
42663;DHT22;44330;51.360;6.686;2023-04-25T08:50:38;12.10;99.80
42663;DHT22;44330;51.360;6.686;2023-04-25T08:53:08;12.10;99.90
42663;DHT22;44330;51.360;6.686;2023-04-25T08:55:37;12.10;99.90
42663;DHT22;44330;51.360;6.686;2023-04-25T08:58:02;11.90;77.80
42663;DHT22;44330;51.360;6.686;2023-04-25T09:00:30;11.90;89.80
42663;DHT22;44330;51.360;6.686;2023-04-25T09:02:55;11.90;93.00
42663;DHT22;44330;51.360;6.686;2023-04-25T09:05:22;11.90;99.90
42663;DHT22;44330;51.360;6.686;2023-04-25T09:07:48;11.70;95.10
42663;DHT22;44330;51.360;6.686;2023-04-25T09:10:14;11.50;91.30
42663;DHT22;44330;51.360;6.686;2023-04-25T09:12:39;11.60;76.50
42663;DHT22;44330;51.360;6.686;2023-04-25T09:15:07;11.80;63.70
42663;DHT22;44330;51.360;6.686;2023-04-25T09:17:33;12.30;51.60
42663;DHT22;44330;51.360;6.686;2023-04-25T09:20:11;12.70;80.00
42663;DHT22;44330;51.360;6.686;2023-04-25T09:22:38;12.80;99.90
42663;DHT22;44330;51.360;6.686;2023-04-25T09:25:12;13.20;1.00
42663;DHT22;44330;51.360;6.686;2023-04-25T09:27:50;13.70;99.90
42663;DHT22;44330;51.360;6.686;2023-04-25T09:30:17;14.20;1.00
42663;DHT22;44330;51.360;6.686;2023-04-25T09:32:43;14.00;99.90
42663;DHT22;44330;51.360;6.686;2023-04-25T09:35:23;13.80;99.90
42663;DHT22;44330;51.360;6.686;2023-04-25T09:37:50;13.60;99.90
42663;DHT22;44330;51.360;6.686;2023-04-25T09:40:18;13.60;99.90
42663;DHT22;44330;51.360;6.686;2023-04-25T09:42:43;13.80;99.90
42663;DHT22;44330;51.360;6.686;2023-04-25T09:45:12;13.80;99.90
42663;DHT22;44330;51.360;6.686;2023-04-25T09:47:38;13.30;99.90
42663;DHT22;44330;51.360;6.686;2023-04-25T09:50:14;13.00;99.90
42663;DHT22;44330;51.360;6.686;2023-04-25T09:52:40;13.10;99.90
42663;DHT22;44330;51.360;6.686;2023-04-25T09:55:06;13.20;99.90
42663;DHT22;44330;51.360;6.686;2023-04-25T09:57:32;13.30;99.90
42663;DHT22;44330;51.360;6.686;2023-04-25T10:00:00;13.50;99.90
42663;DHT22;44330;51.360;6.686;2023-04-25T10:02:26;13.40;99.90
42663;DHT22;44330;51.360;6.686;2023-04-25T10:04:54;13.20;99.90
42663;DHT22;44330;51.360;6.686;2023-04-25T10:07:23;13.20;99.90
42663;DHT22;44330;51.360;6.686;2023-04-25T10:09:56;13.10;99.90
42663;DHT22;44330;51.360;6.686;2023-04-25T10:12:24;13.20;99.90
42663;DHT22;44330;51.360;6.686;2023-04-25T10:14:50;13.10;99.90
42663;DHT22;44330;51.360;6.686;2023-04-25T10:17:17;13.00;99.90
42663;DHT22;44330;51.360;6.686;2023-04-25T10:19:45;13.20;99.90
42663;DHT22;44330;51.360;6.686;2023-04-25T10:22:23;13.40;99.90
42663;DHT22;44330;51.360;6.686;2023-04-25T10:24:51;13.80;99.90
42663;DHT22;44330;51.360;6.686;2023-04-25T10:27:18;14.10;99.90
42663;DHT22;44330;51.360;6.686;2023-04-25T10:29:44;14.20;99.90
42663;DHT22;44330;51.360;6.686;2023-04-25T10:32:09;14.10;99.90
42663;DHT22;44330;51.360;6.686;2023-04-25T10:34:42;13.80;99.90
42663;DHT22;44330;51.360;6.686;2023-04-25T10:37:12;13.50;99.90
42663;DHT22;44330;51.360;6.686;2023-04-25T10:39:39;13.00;99.90
42663;DHT22;44330;51.360;6.686;2023-04-25T10:42:06;12.70;99.90
42663;DHT22;44330;51.360;6.686;2023-04-25T10:44:33;12.70;99.90
42663;DHT22;44330;51.360;6.686;2023-04-25T10:47:00;12.70;99.90
42663;DHT22;44330;51.360;6.686;2023-04-25T10:52:15;12.60;99.90
42663;DHT22;44330;51.360;6.686;2023-04-25T10:54:42;12.60;99.90
42663;DHT22;44330;51.360;6.686;2023-04-25T11:00:04;13.30;99.90
42663;DHT22;44330;51.360;6.686;2023-04-25T11:02:31;13.80;99.90
42663;DHT22;44330;51.360;6.686;2023-04-25T11:04:57;13.40;99.90
42663;DHT22;44330;51.360;6.686;2023-04-25T11:07:33;13.70;99.90
42663;DHT22;44330;51.360;6.686;2023-04-25T11:10:02;13.50;99.90
42663;DHT22;44330;51.360;6.686;2023-04-25T11:12:32;13.40;99.90
42663;DHT22;44330;51.360;6.686;2023-04-25T11:15:03;13.20;99.90
42663;DHT22;44330;51.360;6.686;2023-04-25T11:17:29;13.40;99.90
42663;DHT22;44330;51.360;6.686;2023-04-25T11:19:55;13.90;99.90
42663;DHT22;44330;51.360;6.686;2023-04-25T11:22:22;13.80;99.90
42663;DHT22;44330;51.360;6.686;2023-04-25T11:24:48;14.10;99.90
42663;DHT22;44330;51.360;6.686;2023-04-25T11:27:13;14.00;99.90
42663;DHT22;44330;51.360;6.686;2023-04-25T11:29:40;13.80;99.90
42663;DHT22;44330;51.360;6.686;2023-04-25T11:32:05;13.30;99.90
42663;DHT22;44330;51.360;6.686;2023-04-25T11:34:32;12.70;99.90
42663;DHT22;44330;51.360;6.686;2023-04-25T11:36:58;12.30;99.90
42663;DHT22;44330;51.360;6.686;2023-04-25T11:39:25;11.80;99.90
42663;DHT22;44330;51.360;6.686;2023-04-25T11:41:52;11.60;99.90
42663;DHT22;44330;51.360;6.686;2023-04-25T11:44:18;11.40;99.90
42663;DHT22;44330;51.360;6.686;2023-04-25T11:46:44;11.30;99.90
42663;DHT22;44330;51.360;6.686;2023-04-25T11:49:10;11.50;99.90
42663;DHT22;44330;51.360;6.686;2023-04-25T11:51:44;11.00;99.90
42663;DHT22;44330;51.360;6.686;2023-04-25T11:54:10;10.70;99.90
42663;DHT22;44330;51.360;6.686;2023-04-25T11:56:37;10.30;99.90
42663;DHT22;44330;51.360;6.686;2023-04-25T11:59:05;10.20;1.00
42663;DHT22;44330;51.360;6.686;2023-04-25T12:01:32;10.20;99.90
42663;DHT22;44330;51.360;6.686;2023-04-25T12:04:09;10.20;99.90
42663;DHT22;44330;51.360;6.686;2023-04-25T12:06:39;10.30;99.90
42663;DHT22;44330;51.360;6.686;2023-04-25T12:09:08;10.50;1.00
42663;DHT22;44330;51.360;6.686;2023-04-25T12:11:44;10.60;99.90
42663;DHT22;44330;51.360;6.686;2023-04-25T12:14:10;10.90;1.00
42663;DHT22;44330;51.360;6.686;2023-04-25T12:16:46;11.30;99.90
42663;DHT22;44330;51.360;6.686;2023-04-25T12:19:19;11.70;1.00
42663;DHT22;44330;51.360;6.686;2023-04-25T12:21:45;11.90;73.10
42663;DHT22;44330;51.360;6.686;2023-04-25T12:24:12;11.90;1.00
42663;DHT22;44330;51.360;6.686;2023-04-25T12:29:33;12.10;38.30
42663;DHT22;44330;51.360;6.686;2023-04-25T12:32:00;12.20;12.40
42663;DHT22;44330;51.360;6.686;2023-04-25T12:34:27;12.20;99.90
42663;DHT22;44330;51.360;6.686;2023-04-25T12:36:53;12.10;99.90
42663;DHT22;44330;51.360;6.686;2023-04-25T12:39:24;12.50;1.00
42663;DHT22;44330;51.360;6.686;2023-04-25T12:41:52;12.80;99.90
42663;DHT22;44330;51.360;6.686;2023-04-25T12:44:21;13.30;99.90
42663;DHT22;44330;51.360;6.686;2023-04-25T12:46:47;13.60;99.90
42663;DHT22;44330;51.360;6.686;2023-04-25T12:49:12;13.50;1.00
42663;DHT22;44330;51.360;6.686;2023-04-25T12:51:38;13.30;1.00
42663;DHT22;44330;51.360;6.686;2023-04-25T12:54:05;13.30;1.00
42663;DHT22;44330;51.360;6.686;2023-04-25T12:56:32;13.10;1.00
42663;DHT22;44330;51.360;6.686;2023-04-25T12:58:58;12.80;99.90
42663;DHT22;44330;51.360;6.686;2023-04-25T13:01:24;12.90;1.00
42663;DHT22;44330;51.360;6.686;2023-04-25T13:03:50;12.80;1.00
42663;DHT22;44330;51.360;6.686;2023-04-25T13:06:17;12.90;1.00
42663;DHT22;44330;51.360;6.686;2023-04-25T13:08:42;13.30;1.00
42663;DHT22;44330;51.360;6.686;2023-04-25T13:11:08;13.70;1.00
42663;DHT22;44330;51.360;6.686;2023-04-25T13:13:34;13.90;99.90
42663;DHT22;44330;51.360;6.686;2023-04-25T13:16:04;13.70;99.90
42663;DHT22;44330;51.360;6.686;2023-04-25T13:18:30;13.90;99.90
42663;DHT22;44330;51.360;6.686;2023-04-25T13:20:56;13.90;99.90
42663;DHT22;44330;51.360;6.686;2023-04-25T13:23:23;14.10;99.90
42663;DHT22;44330;51.360;6.686;2023-04-25T13:25:48;14.20;99.90
42663;DHT22;44330;51.360;6.686;2023-04-25T13:28:14;14.20;99.90
42663;DHT22;44330;51.360;6.686;2023-04-25T13:30:40;14.00;99.90
42663;DHT22;44330;51.360;6.686;2023-04-25T13:33:06;14.10;99.90
42663;DHT22;44330;51.360;6.686;2023-04-25T13:35:32;14.40;99.90
42663;DHT22;44330;51.360;6.686;2023-04-25T13:37:58;14.30;99.90
42663;DHT22;44330;51.360;6.686;2023-04-25T13:40:24;14.30;99.90
42663;DHT22;44330;51.360;6.686;2023-04-25T13:42:49;13.80;99.90
42663;DHT22;44330;51.360;6.686;2023-04-25T13:45:16;13.40;99.90
42663;DHT22;44330;51.360;6.686;2023-04-25T13:47:42;13.20;99.90
42663;DHT22;44330;51.360;6.686;2023-04-25T13:50:08;13.20;99.90
42663;DHT22;44330;51.360;6.686;2023-04-25T13:52:34;13.30;99.90
42663;DHT22;44330;51.360;6.686;2023-04-25T13:55:00;13.40;99.90
42663;DHT22;44330;51.360;6.686;2023-04-25T13:57:28;13.70;99.90
42663;DHT22;44330;51.360;6.686;2023-04-25T13:59:53;13.70;99.90
42663;DHT22;44330;51.360;6.686;2023-04-25T14:02:19;13.60;99.90
42663;DHT22;44330;51.360;6.686;2023-04-25T14:04:45;13.70;99.90
42663;DHT22;44330;51.360;6.686;2023-04-25T14:07:10;13.90;99.90
42663;DHT22;44330;51.360;6.686;2023-04-25T14:09:36;13.80;99.90
42663;DHT22;44330;51.360;6.686;2023-04-25T14:12:02;13.50;99.90
42663;DHT22;44330;51.360;6.686;2023-04-25T14:14:28;13.60;99.90
42663;DHT22;44330;51.360;6.686;2023-04-25T14:16:53;13.40;99.90
42663;DHT22;44330;51.360;6.686;2023-04-25T14:19:20;13.10;99.90
42663;DHT22;44330;51.360;6.686;2023-04-25T14:21:46;13.10;99.90
42663;DHT22;44330;51.360;6.686;2023-04-25T14:24:12;13.10;99.90
42663;DHT22;44330;51.360;6.686;2023-04-25T14:26:39;13.20;99.90
42663;DHT22;44330;51.360;6.686;2023-04-25T14:29:06;13.50;99.90
42663;DHT22;44330;51.360;6.686;2023-04-25T14:31:37;13.90;99.90
42663;DHT22;44330;51.360;6.686;2023-04-25T14:34:04;14.00;99.90
42663;DHT22;44330;51.360;6.686;2023-04-25T14:36:29;13.80;99.90
42663;DHT22;44330;51.360;6.686;2023-04-25T14:38:56;13.70;99.90
42663;DHT22;44330;51.360;6.686;2023-04-25T14:41:22;13.70;99.90
42663;DHT22;44330;51.360;6.686;2023-04-25T14:43:48;13.60;99.90
42663;DHT22;44330;51.360;6.686;2023-04-25T14:46:14;13.40;99.90
42663;DHT22;44330;51.360;6.686;2023-04-25T14:48:39;13.30;99.90
42663;DHT22;44330;51.360;6.686;2023-04-25T14:51:05;13.20;99.90
42663;DHT22;44330;51.360;6.686;2023-04-25T14:53:31;13.40;99.90
42663;DHT22;44330;51.360;6.686;2023-04-25T14:55:57;13.50;98.20
42663;DHT22;44330;51.360;6.686;2023-04-25T14:58:23;13.40;99.90
42663;DHT22;44330;51.360;6.686;2023-04-25T15:00:49;13.20;99.90
42663;DHT22;44330;51.360;6.686;2023-04-25T15:03:14;12.90;99.90
42663;DHT22;44330;51.360;6.686;2023-04-25T15:05:42;12.80;99.90
42663;DHT22;44330;51.360;6.686;2023-04-25T15:08:07;12.70;99.90
42663;DHT22;44330;51.360;6.686;2023-04-25T15:10:34;12.40;99.90
42663;DHT22;44330;51.360;6.686;2023-04-25T15:12:59;12.30;99.90
42663;DHT22;44330;51.360;6.686;2023-04-25T15:15:25;12.30;99.90
42663;DHT22;44330;51.360;6.686;2023-04-25T15:17:52;12.50;99.90
42663;DHT22;44330;51.360;6.686;2023-04-25T15:20:20;12.70;99.90
42663;DHT22;44330;51.360;6.686;2023-04-25T15:22:46;12.90;99.90
42663;DHT22;44330;51.360;6.686;2023-04-25T15:25:14;13.10;99.90
42663;DHT22;44330;51.360;6.686;2023-04-25T15:27:43;13.30;99.90
42663;DHT22;44330;51.360;6.686;2023-04-25T15:30:11;13.30;99.90
42663;DHT22;44330;51.360;6.686;2023-04-25T15:32:38;13.00;99.90
42663;DHT22;44330;51.360;6.686;2023-04-25T15:35:05;12.80;99.90
42663;DHT22;44330;51.360;6.686;2023-04-25T15:37:32;12.80;99.90
42663;DHT22;44330;51.360;6.686;2023-04-25T15:40:06;12.80;99.90
42663;DHT22;44330;51.360;6.686;2023-04-25T15:42:39;12.70;99.90
42663;DHT22;44330;51.360;6.686;2023-04-25T15:45:07;12.40;99.90